Terminal Aerodrome Forecast
Issued by NWS

Home | Current Version | Previous Version | Text Only | Print | Product List | Glossary On
Versions: 1 2 3 4 5 6 7 8 9 10 11 12 13 14 15 16 17 18 19 20 21 22 23 24 25 26
000
FTUS42 KRAH 251512 AAA
TAFINT
TAF AMD
KINT 251512Z 2515/2612 02012G17KT 2SM -RA BR BKN007 OVC015
     FM251800 36010KT P6SM OVC009
     FM260000 36010KT P6SM OVC015
     FM260600 VRB05KT P6SM SCT035=

USA.gov is the U.S. government's official web portal to all federal, state and local government web resources and services.